Time;durP1;ratioP1;P1;durP2;ratioP2;P2;SDS_P1;SDS_P2;PMS_P1;PMS_P2;Temp;Humidity;BMP_temperature;BMP_pressure;BME280_temperature;BME280_humidity;BME280_pressure;Samples;Min_cycle;Max_cycle;Signal;HPM_P1;HPM_P2
2023/07/09 00:02:20;;;;;;;;;;;24.00;1.00;;;;;;5071350;28;20471;-75
2023/07/09 00:04:45;;;;;;;;;;;24.00;1.00;;;;;;5089789;28;19924;-75
2023/07/09 00:07:21;;;;;;;;;;;24.00;1.00;;;;;;5070639;28;19939;-75
2023/07/09 00:09:46;;;;;;;;;;;23.90;1.00;;;;;;5072759;28;19928;-75
2023/07/09 00:12:16;;;;;;;;;;;23.90;1.00;;;;;;5075180;28;19931;-75
2023/07/09 00:14:42;;;;;;;;;;;23.90;1.00;;;;;;5058815;28;19976;-74
2023/07/09 00:17:08;;;;;;;;;;;23.90;1.00;;;;;;5073952;28;19924;-75
2023/07/09 00:19:34;;;;;;;;;;;23.90;1.00;;;;;;5093188;28;19957;-74
2023/07/09 00:22:00;;;;;;;;;;;23.90;1.00;;;;;;5075192;28;20044;-75
2023/07/09 00:24:26;;;;;;;;;;;23.80;1.00;;;;;;5074601;28;19928;-75
2023/07/09 00:26:52;;;;;;;;;;;23.80;1.00;;;;;;5079629;28;19931;-75
2023/07/09 00:29:18;;;;;;;;;;;23.70;1.00;;;;;;5075432;28;19924;-75
2023/07/09 00:31:43;;;;;;;;;;;23.70;1.00;;;;;;5092905;28;19928;-75
2023/07/09 00:34:11;;;;;;;;;;;23.70;1.00;;;;;;5074906;28;19928;-75
2023/07/09 00:36:37;;;;;;;;;;;23.70;1.00;;;;;;5075044;28;20513;-75
2023/07/09 00:39:06;;;;;;;;;;;23.60;1.00;;;;;;5063748;28;19932;-75
2023/07/09 00:41:36;;;;;;;;;;;23.60;1.00;;;;;;5059884;28;19928;-75
2023/07/09 00:44:22;;;;;;;;;;;23.60;1.00;;;;;;5045044;28;19929;-75
2023/07/09 00:46:48;;;;;;;;;;;23.60;1.00;;;;;;5083509;28;20393;-74
2023/07/09 00:49:16;;;;;;;;;;;23.50;1.00;;;;;;5054995;28;19925;-74
2023/07/09 00:51:45;;;;;;;;;;;23.50;2.60;;;;;;5093098;28;20015;-75
2023/07/09 00:54:21;;;;;;;;;;;23.40;6.50;;;;;;5092256;28;20042;-75
2023/07/09 00:56:51;;;;;;;;;;;23.40;12.80;;;;;;5074702;28;20461;-74
2023/07/09 00:59:19;;;;;;;;;;;23.30;16.70;;;;;;5074316;28;19924;-75
2023/07/09 01:01:50;;;;;;;;;;;23.30;18.80;;;;;;5074485;28;19924;-75
2023/07/09 01:04:17;;;;;;;;;;;23.30;29.70;;;;;;5074118;28;19924;-74
2023/07/09 01:06:44;;;;;;;;;;;23.30;35.10;;;;;;5072176;28;19924;-75
2023/07/09 01:09:10;;;;;;;;;;;23.20;39.30;;;;;;5092484;28;19979;-75
2023/07/09 01:11:38;;;;;;;;;;;23.20;42.80;;;;;;5057168;28;19972;-74
2023/07/09 01:14:05;;;;;;;;;;;23.20;54.00;;;;;;5074044;28;19924;-74
2023/07/09 01:16:37;;;;;;;;;;;23.10;60.60;;;;;;5092152;28;19935;-74
2023/07/09 01:19:04;;;;;;;;;;;23.10;74.60;;;;;;5055927;28;20792;-75
2023/07/09 01:21:29;;;;;;;;;;;23.10;87.80;;;;;;5090221;28;19924;-75
2023/07/09 01:23:57;;;;;;;;;;;23.00;97.50;;;;;;5073115;28;20335;-74
2023/07/09 01:26:27;;;;;;;;;;;23.00;99.90;;;;;;5071605;28;19927;-74
2023/07/09 01:28:53;;;;;;;;;;;23.00;99.90;;;;;;5072012;28;19956;-74
2023/07/09 01:31:19;;;;;;;;;;;22.90;99.90;;;;;;5071994;28;20351;-74
2023/07/09 01:33:45;;;;;;;;;;;22.90;99.90;;;;;;5074111;28;20390;-74
2023/07/09 01:36:13;;;;;;;;;;;22.90;99.90;;;;;;5091193;28;19924;-75
2023/07/09 01:38:39;;;;;;;;;;;22.80;99.90;;;;;;5092138;28;20419;-74
2023/07/09 01:41:05;;;;;;;;;;;22.80;99.90;;;;;;5072461;28;19985;-75
2023/07/09 01:43:31;;;;;;;;;;;22.70;99.90;;;;;;5081984;28;19929;-75
2023/07/09 01:45:57;;;;;;;;;;;22.70;99.90;;;;;;5069616;28;20359;-75
2023/07/09 01:48:24;;;;;;;;;;;22.70;99.90;;;;;;5091889;28;20364;-75
2023/07/09 01:50:50;;;;;;;;;;;22.70;99.90;;;;;;5089881;28;19932;-74
2023/07/09 01:53:16;;;;;;;;;;;22.60;99.90;;;;;;5073584;28;19930;-75
2023/07/09 01:55:42;;;;;;;;;;;22.60;99.90;;;;;;5073099;28;20023;-74
2023/07/09 01:58:08;;;;;;;;;;;22.60;99.90;;;;;;5090540;28;19924;-74
2023/07/09 02:00:37;;;;;;;;;;;22.60;99.90;;;;;;5090405;28;19950;-74
2023/07/09 02:03:04;;;;;;;;;;;22.60;99.90;;;;;;5073410;28;20429;-74
2023/07/09 02:05:31;;;;;;;;;;;22.60;99.90;;;;;;5059978;28;19925;-74
2023/07/09 02:07:56;;;;;;;;;;;22.50;99.90;;;;;;5073118;28;19928;-74
2023/07/09 02:10:22;;;;;;;;;;;22.50;99.90;;;;;;5073403;28;19947;-74
2023/07/09 02:12:48;;;;;;;;;;;22.40;99.90;;;;;;5056228;28;19935;-75
2023/07/09 02:15:14;;;;;;;;;;;22.40;99.90;;;;;;5088671;28;19953;-75
2023/07/09 02:17:40;;;;;;;;;;;22.40;99.90;;;;;;5060071;28;20483;-74
2023/07/09 02:20:06;;;;;;;;;;;22.40;99.90;;;;;;5081940;28;20044;-75
2023/07/09 02:22:32;;;;;;;;;;;22.40;99.90;;;;;;5064310;28;20006;-74
2023/07/09 02:24:58;;;;;;;;;;;22.40;99.90;;;;;;5048836;28;19963;-74
2023/07/09 02:27:24;;;;;;;;;;;22.40;99.90;;;;;;5049740;28;19967;-74
2023/07/09 02:29:49;;;;;;;;;;;22.40;99.90;;;;;;5072129;28;19924;-75
2023/07/09 02:32:19;;;;;;;;;;;22.30;99.90;;;;;;5071827;28;20340;-75
2023/07/09 02:34:48;;;;;;;;;;;22.30;99.90;;;;;;5046799;28;20304;-74
2023/07/09 02:37:15;;;;;;;;;;;22.30;99.90;;;;;;5064314;28;19931;-74
2023/07/09 02:39:41;;;;;;;;;;;22.30;99.90;;;;;;5089977;28;19924;-74
2023/07/09 02:42:09;;;;;;;;;;;22.20;99.90;;;;;;5072334;28;19935;-74
2023/07/09 02:44:35;;;;;;;;;;;22.20;99.90;;;;;;5089860;28;19931;-75
2023/07/09 02:47:00;;;;;;;;;;;22.10;99.90;;;;;;5065545;28;19924;-75
2023/07/09 02:49:26;;;;;;;;;;;22.10;99.90;;;;;;5071964;28;20407;-74
2023/07/09 02:51:51;;;;;;;;;;;22.00;1.00;;;;;;5063234;28;19924;-74
2023/07/09 02:54:17;;;;;;;;;;;22.00;1.00;;;;;;5064971;28;20280;-74
2023/07/09 02:56:42;;;;;;;;;;;22.00;1.00;;;;;;5070506;28;20287;-74
2023/07/09 02:59:08;;;;;;;;;;;22.00;1.00;;;;;;5072423;28;20776;-74
2023/07/09 03:01:34;;;;;;;;;;;22.00;1.00;;;;;;5090042;28;19928;-74
2023/07/09 03:04:01;;;;;;;;;;;21.90;1.00;;;;;;5090626;28;19924;-74
2023/07/09 03:06:27;;;;;;;;;;;21.90;1.00;;;;;;5089584;28;19963;-74
2023/07/09 03:08:52;;;;;;;;;;;21.90;1.00;;;;;;5072649;28;20395;-74
2023/07/09 03:11:19;;;;;;;;;;;21.80;1.00;;;;;;5071802;28;19971;-74
2023/07/09 03:13:44;;;;;;;;;;;21.80;1.00;;;;;;5090136;28;19967;-75
2023/07/09 03:16:10;;;;;;;;;;;21.80;1.00;;;;;;5089816;28;19924;-74
2023/07/09 03:18:36;;;;;;;;;;;21.80;1.00;;;;;;5076113;28;19974;-74
2023/07/09 03:21:01;;;;;;;;;;;21.70;1.00;;;;;;5088754;28;19931;-74
2023/07/09 03:23:27;;;;;;;;;;;21.70;25.10;;;;;;5089290;28;19924;-74
2023/07/09 03:25:52;;;;;;;;;;;21.70;5.00;;;;;;5080579;28;19951;-74
2023/07/09 03:28:18;;;;;;;;;;;21.70;1.00;;;;;;5062471;28;20211;-74
2023/07/09 03:30:44;;;;;;;;;;;21.70;31.60;;;;;;5089727;28;19932;-74
2023/07/09 03:33:11;;;;;;;;;;;21.60;67.50;;;;;;5089450;28;20394;-74
2023/07/09 03:35:38;;;;;;;;;;;21.60;99.70;;;;;;5089643;28;19979;-75
2023/07/09 03:38:04;;;;;;;;;;;21.50;99.90;;;;;;5070958;28;19928;-74
2023/07/09 03:40:29;;;;;;;;;;;21.50;99.90;;;;;;5071306;28;19924;-74
2023/07/09 03:42:55;;;;;;;;;;;21.50;99.90;;;;;;5071503;28;20927;-75
2023/07/09 03:45:20;;;;;;;;;;;21.50;99.90;;;;;;5071172;28;19927;-75
2023/07/09 03:47:46;;;;;;;;;;;21.40;99.90;;;;;;5089552;28;20356;-75
2023/07/09 03:50:11;;;;;;;;;;;21.40;99.90;;;;;;5070851;28;20076;-74
2023/07/09 03:52:37;;;;;;;;;;;21.40;1.00;;;;;;5071509;28;20010;-75
2023/07/09 03:55:04;;;;;;;;;;;21.40;1.00;;;;;;5054433;28;19924;-74
2023/07/09 03:57:30;;;;;;;;;;;21.40;1.00;;;;;;5071045;28;20397;-74
2023/07/09 03:59:55;;;;;;;;;;;21.30;1.00;;;;;;5089226;28;19935;-74
2023/07/09 04:02:21;;;;;;;;;;;21.30;99.90;;;;;;5054520;28;19924;-74
2023/07/09 04:04:46;;;;;;;;;;;21.30;99.90;;;;;;5065981;28;19999;-74
2023/07/09 04:07:12;;;;;;;;;;;21.30;99.90;;;;;;5071644;28;19928;-74
2023/07/09 04:09:38;;;;;;;;;;;21.30;99.90;;;;;;5070171;28;19924;-74
2023/07/09 04:12:03;;;;;;;;;;;21.30;99.90;;;;;;5089405;28;20356;-74
2023/07/09 04:14:29;;;;;;;;;;;21.30;99.90;;;;;;5089134;28;19929;-74
2023/07/09 04:16:55;;;;;;;;;;;21.30;99.90;;;;;;5089222;28;19924;-75
2023/07/09 04:19:20;;;;;;;;;;;21.30;99.90;;;;;;5089239;28;19931;-74
2023/07/09 04:21:46;;;;;;;;;;;21.30;99.90;;;;;;5089326;28;19924;-74
2023/07/09 04:24:11;;;;;;;;;;;21.30;99.90;;;;;;5088867;28;19924;-74
2023/07/09 04:26:38;;;;;;;;;;;21.30;99.90;;;;;;5089084;28;19935;-74
2023/07/09 04:29:05;;;;;;;;;;;21.40;99.90;;;;;;5089552;28;20020;-75
2023/07/09 04:31:30;;;;;;;;;;;21.40;99.90;;;;;;5070977;28;19928;-74
2023/07/09 04:33:56;;;;;;;;;;;21.40;99.90;;;;;;5080431;28;20411;-74
2023/07/09 04:36:21;;;;;;;;;;;21.40;99.90;;;;;;5088633;28;19930;-74
2023/07/09 04:38:47;;;;;;;;;;;21.40;99.90;;;;;;5070622;28;20439;-74
2023/07/09 04:41:12;;;;;;;;;;;21.50;99.90;;;;;;5088363;28;19928;-74
2023/07/09 04:43:38;;;;;;;;;;;21.40;99.90;;;;;;5088207;28;19924;-74
2023/07/09 04:46:03;;;;;;;;;;;21.50;99.90;;;;;;5087801;28;19930;-74
2023/07/09 04:48:29;;;;;;;;;;;21.50;81.80;;;;;;5088374;28;19924;-74
2023/07/09 04:50:54;;;;;;;;;;;21.60;62.50;;;;;;5054625;28;19970;-75
2023/07/09 04:53:20;;;;;;;;;;;21.60;8.20;;;;;;5070717;28;20421;-74
2023/07/09 04:55:45;;;;;;;;;;;21.60;1.00;;;;;;5051388;28;19924;-74
2023/07/09 04:58:11;;;;;;;;;;;21.60;1.00;;;;;;5084182;28;20385;-74
2023/07/09 05:00:36;;;;;;;;;;;21.70;1.00;;;;;;5074739;28;19989;-74
2023/07/09 05:03:02;;;;;;;;;;;21.70;1.00;;;;;;5092597;28;19924;-74
2023/07/09 05:05:27;;;;;;;;;;;21.80;1.00;;;;;;5092272;28;19924;-74
2023/07/09 05:07:53;;;;;;;;;;;21.80;1.00;;;;;;5073811;28;19981;-74
2023/07/09 05:10:18;;;;;;;;;;;21.90;1.00;;;;;;5084404;28;20024;-74
2023/07/09 05:12:51;;;;;;;;;;;21.90;1.00;;;;;;5044152;28;19924;-74
2023/07/09 05:15:18;;;;;;;;;;;21.90;1.00;;;;;;5068785;28;19935;-74
2023/07/09 05:17:44;;;;;;;;;;;22.00;99.90;;;;;;5049336;28;19964;-74
2023/07/09 05:20:10;;;;;;;;;;;22.00;99.90;;;;;;5057546;28;20365;-74
2023/07/09 05:22:35;;;;;;;;;;;22.00;99.90;;;;;;5073883;28;19928;-75
2023/07/09 05:25:01;;;;;;;;;;;22.10;99.90;;;;;;5051289;28;20371;-75
2023/07/09 05:27:26;;;;;;;;;;;22.20;99.90;;;;;;5053650;28;19973;-74
2023/07/09 05:29:52;;;;;;;;;;;22.20;99.90;;;;;;5073760;28;19924;-74
2023/07/09 05:32:18;;;;;;;;;;;22.20;99.90;;;;;;5073971;28;19924;-74
2023/07/09 05:34:43;;;;;;;;;;;22.30;99.90;;;;;;5073232;28;20307;-74
2023/07/09 05:37:09;;;;;;;;;;;22.30;99.90;;;;;;5065519;28;19924;-75
2023/07/09 05:39:34;;;;;;;;;;;22.40;99.90;;;;;;5073788;28;20394;-74
2023/07/09 05:42:00;;;;;;;;;;;22.40;99.90;;;;;;5072416;28;19924;-75
2023/07/09 05:44:25;;;;;;;;;;;22.50;99.90;;;;;;5051687;28;19928;-74
2023/07/09 05:46:51;;;;;;;;;;;22.50;99.90;;;;;;5073740;28;19928;-74
2023/07/09 05:49:18;;;;;;;;;;;22.60;99.90;;;;;;5056741;28;19931;-74
2023/07/09 05:51:43;;;;;;;;;;;22.70;99.90;;;;;;5073183;28;19932;-75
2023/07/09 05:54:09;;;;;;;;;;;22.80;99.90;;;;;;5073271;28;19969;-74
2023/07/09 05:56:35;;;;;;;;;;;22.80;99.90;;;;;;5067898;28;20339;-74
2023/07/09 05:59:00;;;;;;;;;;;22.90;99.90;;;;;;5073199;28;20297;-75
2023/07/09 06:01:27;;;;;;;;;;;23.00;99.90;;;;;;5056677;28;20374;-75
2023/07/09 06:03:54;;;;;;;;;;;23.10;99.90;;;;;;5091357;28;19924;-75
2023/07/09 06:06:19;;;;;;;;;;;23.10;99.90;;;;;;5072017;28;20022;-75
2023/07/09 06:08:46;;;;;;;;;;;23.20;99.90;;;;;;5072936;28;20007;-74
2023/07/09 06:11:12;;;;;;;;;;;23.20;99.90;;;;;;5073095;28;19971;-74
2023/07/09 06:13:37;;;;;;;;;;;23.30;99.90;;;;;;5056062;28;20334;-74
2023/07/09 06:16:03;;;;;;;;;;;23.30;99.90;;;;;;5072461;28;19924;-74
2023/07/09 06:18:29;;;;;;;;;;;23.40;99.90;;;;;;5072960;28;19993;-75
2023/07/09 06:20:56;;;;;;;;;;;23.40;99.90;;;;;;5055976;28;19971;-74
2023/07/09 06:23:22;;;;;;;;;;;23.50;99.90;;;;;;5072721;28;19978;-75
2023/07/09 06:25:48;;;;;;;;;;;23.50;99.90;;;;;;5064258;28;20385;-75
2023/07/09 06:28:17;;;;;;;;;;;23.50;99.90;;;;;;5072916;28;20305;-75
2023/07/09 06:30:43;;;;;;;;;;;23.60;99.90;;;;;;5072304;28;19924;-75
2023/07/09 06:33:10;;;;;;;;;;;23.60;99.90;;;;;;5051984;28;20021;-75
2023/07/09 06:35:35;;;;;;;;;;;23.70;99.90;;;;;;5072919;28;19959;-75
2023/07/09 06:38:01;;;;;;;;;;;23.70;99.90;;;;;;5058945;28;19924;-75
2023/07/09 06:40:26;;;;;;;;;;;23.70;99.90;;;;;;5072487;28;20042;-75
2023/07/09 06:42:52;;;;;;;;;;;23.70;99.90;;;;;;5072654;28;19928;-74
2023/07/09 06:45:17;;;;;;;;;;;23.80;99.90;;;;;;5072199;28;19964;-74
2023/07/09 06:47:43;;;;;;;;;;;23.80;99.90;;;;;;5067824;28;20434;-75
2023/07/09 06:50:08;;;;;;;;;;;23.80;99.90;;;;;;5069342;28;20351;-75
2023/07/09 06:52:34;;;;;;;;;;;23.90;99.90;;;;;;5067318;28;20003;-75
2023/07/09 06:54:59;;;;;;;;;;;23.90;99.90;;;;;;5046057;28;19924;-75
2023/07/09 06:57:25;;;;;;;;;;;23.90;99.90;;;;;;5055567;28;19927;-75
2023/07/09 06:59:50;;;;;;;;;;;24.00;99.90;;;;;;5072138;28;20333;-75
2023/07/09 07:02:16;;;;;;;;;;;24.00;99.90;;;;;;5061492;28;19928;-75
2023/07/09 07:04:41;;;;;;;;;;;24.10;99.90;;;;;;5069092;28;19931;-74
2023/07/09 07:07:07;;;;;;;;;;;24.30;99.90;;;;;;5071781;28;20333;-74
2023/07/09 07:09:32;;;;;;;;;;;24.40;99.90;;;;;;5071797;28;19928;-75
2023/07/09 07:11:58;;;;;;;;;;;24.50;99.90;;;;;;5071976;28;19924;-75
2023/07/09 07:14:23;;;;;;;;;;;24.60;99.90;;;;;;5066754;28;20010;-75
2023/07/09 07:16:49;;;;;;;;;;;24.70;99.90;;;;;;5058986;28;19997;-75
2023/07/09 07:19:15;;;;;;;;;;;24.80;99.90;;;;;;5060056;28;20002;-75
2023/07/09 07:21:41;;;;;;;;;;;24.90;99.90;;;;;;5059685;28;20015;-74
2023/07/09 07:24:06;;;;;;;;;;;25.00;99.90;;;;;;5053730;28;19925;-74
2023/07/09 07:26:32;;;;;;;;;;;25.00;99.90;;;;;;5080375;28;20279;-74
2023/07/09 07:28:57;;;;;;;;;;;25.00;99.90;;;;;;5062169;28;20294;-75
2023/07/09 07:31:23;;;;;;;;;;;25.10;99.90;;;;;;5060913;28;19924;-75
2023/07/09 07:33:48;;;;;;;;;;;25.10;99.90;;;;;;5057209;28;20019;-75
2023/07/09 07:36:14;;;;;;;;;;;25.20;99.90;;;;;;5052497;28;19924;-75
2023/07/09 07:38:39;;;;;;;;;;;25.30;99.90;;;;;;5053674;28;21095;-75
2023/07/09 07:41:05;;;;;;;;;;;25.40;99.90;;;;;;5060378;28;19928;-75
2023/07/09 07:43:30;;;;;;;;;;;25.40;99.90;;;;;;5059897;28;19928;-75
2023/07/09 07:45:56;;;;;;;;;;;25.60;99.90;;;;;;5038443;28;19954;-74
2023/07/09 07:48:21;;;;;;;;;;;25.70;99.90;;;;;;5045112;28;19993;-75
2023/07/09 07:50:47;;;;;;;;;;;25.80;99.90;;;;;;5051190;28;19992;-75
2023/07/09 07:53:14;;;;;;;;;;;25.90;99.90;;;;;;5055588;28;21198;-75
2023/07/09 07:55:40;;;;;;;;;;;26.00;99.90;;;;;;5060713;28;20023;-75
2023/07/09 07:58:08;;;;;;;;;;;26.10;99.90;;;;;;5078986;28;20023;-75
2023/07/09 08:00:33;;;;;;;;;;;26.30;99.90;;;;;;5062051;28;19951;-75
2023/07/09 08:02:59;;;;;;;;;;;26.40;93.90;;;;;;5063736;28;20389;-75
2023/07/09 08:05:25;;;;;;;;;;;26.50;99.90;;;;;;5045553;28;19931;-75
2023/07/09 08:07:50;;;;;;;;;;;26.60;96.50;;;;;;5055885;28;19924;-75
2023/07/09 08:10:16;;;;;;;;;;;26.70;91.70;;;;;;5075279;28;19931;-75
2023/07/09 08:12:41;;;;;;;;;;;26.80;91.60;;;;;;5061138;28;19924;-75
2023/07/09 08:15:07;;;;;;;;;;;26.80;84.80;;;;;;5079679;28;19924;-74
2023/07/09 08:17:33;;;;;;;;;;;26.80;57.10;;;;;;5040571;28;19951;-75
2023/07/09 08:19:58;;;;;;;;;;;26.80;35.10;;;;;;5060329;28;19924;-75
2023/07/09 08:22:24;;;;;;;;;;;26.80;43.50;;;;;;5080431;28;19935;-76
2023/07/09 08:24:50;;;;;;;;;;;26.80;57.90;;;;;;5044736;28;20313;-75
2023/07/09 08:27:15;;;;;;;;;;;26.80;43.30;;;;;;5052306;28;19947;-76
2023/07/09 08:29:42;;;;;;;;;;;26.90;28.60;;;;;;5062340;28;20310;-76
2023/07/09 08:32:08;;;;;;;;;;;27.00;28.80;;;;;;5079404;28;19924;-75
2023/07/09 08:34:34;;;;;;;;;;;27.20;29.10;;;;;;5081588;28;19940;-75
2023/07/09 08:36:59;;;;;;;;;;;27.30;15.10;;;;;;5056805;28;19924;-75
2023/07/09 08:39:25;;;;;;;;;;;27.40;1.00;;;;;;5069703;28;19929;-74
2023/07/09 08:41:53;;;;;;;;;;;27.50;1.00;;;;;;5084788;28;20290;-73
2023/07/09 08:44:37;;;;;;;;;;;27.60;1.00;;;;;;5080790;28;20336;-73
2023/07/09 08:47:11;;;;;;;;;;;27.80;1.00;;;;;;5069794;28;19969;-74
2023/07/09 08:49:40;;;;;;;;;;;28.00;1.00;;;;;;5054435;28;20026;-74
2023/07/09 08:52:09;;;;;;;;;;;28.20;1.00;;;;;;5073924;28;19924;-74
2023/07/09 08:54:35;;;;;;;;;;;28.20;1.00;;;;;;5074100;28;20435;-74
2023/07/09 08:57:23;;;;;;;;;;;28.30;1.00;;;;;;5069395;28;19924;-75
2023/07/09 08:59:51;;;;;;;;;;;28.40;1.00;;;;;;5064655;28;19986;-75
2023/07/09 09:02:36;;;;;;;;;;;28.40;1.00;;;;;;5064469;28;20070;-75
2023/07/09 09:05:03;;;;;;;;;;;28.40;1.00;;;;;;5068365;28;19939;-75
2023/07/09 09:07:49;;;;;;;;;;;28.50;1.00;;;;;;5056178;28;19932;-74
2023/07/09 09:10:17;;;;;;;;;;;28.60;1.00;;;;;;5061387;28;20401;-75
2023/07/09 09:13:05;;;;;;;;;;;28.60;99.90;;;;;;5060184;28;19924;-75
2023/07/09 09:15:31;;;;;;;;;;;28.60;99.90;;;;;;5080188;28;20020;-75
2023/07/09 09:17:59;;;;;;;;;;;28.70;99.90;;;;;;5088307;28;20355;-75
2023/07/09 09:20:28;;;;;;;;;;;28.80;99.90;;;;;;5071408;28;19924;-74
2023/07/09 09:22:53;;;;;;;;;;;28.90;99.90;;;;;;5072175;28;19924;-75
2023/07/09 09:25:29;;;;;;;;;;;29.00;99.90;;;;;;5068690;28;19931;-75
2023/07/09 09:27:55;;;;;;;;;;;29.10;99.90;;;;;;5065901;28;20352;-75
2023/07/09 09:30:25;;;;;;;;;;;29.20;99.90;;;;;;5073043;28;19924;-75
2023/07/09 09:32:52;;;;;;;;;;;29.40;99.90;;;;;;5060749;28;19932;-75
2023/07/09 09:35:19;;;;;;;;;;;29.40;99.90;;;;;;5064089;28;19924;-74
2023/07/09 09:37:49;;;;;;;;;;;29.50;99.90;;;;;;5067526;28;20408;-75
2023/07/09 09:40:17;;;;;;;;;;;29.80;99.90;;;;;;5067126;28;20316;-75
2023/07/09 09:42:43;;;;;;;;;;;30.00;99.90;;;;;;5070586;28;19978;-74
2023/07/09 09:45:12;;;;;;;;;;;30.20;99.90;;;;;;5056162;28;19924;-75
2023/07/09 09:47:37;;;;;;;;;;;30.30;99.90;;;;;;5073078;28;20327;-75
2023/07/09 09:50:03;;;;;;;;;;;30.30;99.90;;;;;;5073013;28;19969;-75
2023/07/09 09:52:30;;;;;;;;;;;30.30;99.90;;;;;;5068140;28;19977;-75
2023/07/09 09:55:01;;;;;;;;;;;30.40;99.90;;;;;;5058457;28;20035;-75
2023/07/09 09:57:27;;;;;;;;;;;30.50;99.90;;;;;;5072795;28;19931;-75
2023/07/09 09:59:54;;;;;;;;;;;30.70;99.90;;;;;;5072856;28;20018;-75
2023/07/09 10:02:24;;;;;;;;;;;30.80;99.90;;;;;;5071705;28;20629;-75
2023/07/09 10:04:50;;;;;;;10.30;5.60;;;31.00;99.90;;;;;;5048467;28;19928;-75
2023/07/09 10:07:22;;;;;;;8.27;5.35;;;31.30;99.90;;;;;;5069168;28;20406;-76
2023/07/09 10:09:53;;;;;;;7.88;6.03;;;31.50;99.90;;;;;;5061889;28;20430;-75
2023/07/09 10:12:21;;;;;;;;;;;31.60;99.90;;;;;;5066560;28;20651;-75
2023/07/09 10:14:59;;;;;;;;;;;31.70;99.90;;;;;;5072090;28;19924;-75
2023/07/09 10:17:36;;;;;;;;;;;31.80;99.90;;;;;;5055967;28;19924;-75
2023/07/09 10:20:04;;;;;;;9.85;4.82;;;31.90;99.90;;;;;;5068625;28;19920;-76
2023/07/09 10:22:45;;;;;;;11.07;5.88;;;32.10;99.90;;;;;;5087748;28;20406;-76
2023/07/09 10:25:13;;;;;;;;;;;32.30;99.90;;;;;;5068560;28;20059;-76
2023/07/09 10:27:47;;;;;;;;;;;32.50;99.90;;;;;;5072942;28;19952;-76
2023/07/09 10:30:19;;;;;;;;;;;32.70;99.90;;;;;;5073152;28;19926;-76
2023/07/09 10:32:53;;;;;;;;;;;32.80;99.90;;;;;;5068816;28;19965;-76
2023/07/09 10:35:44;;;;;;;10.05;5.80;;;33.00;99.90;;;;;;5072252;28;19927;-76
2023/07/09 10:38:20;;;;;;;7.55;5.55;;;33.20;99.90;;;;;;5089119;28;20487;-76
2023/07/09 10:40:54;;;;;;;7.35;5.10;;;33.40;99.90;;;;;;5087315;28;20040;-76
2023/07/09 10:43:33;;;;;;;12.75;5.65;;;33.60;94.60;;;;;;5065988;28;20101;-76
2023/07/09 10:46:05;;;;;;;7.90;5.63;;;33.80;77.60;;;;;;5072073;28;20053;-76
2023/07/09 10:48:33;;;;;;;;;;;33.90;51.20;;;;;;5072270;28;20055;-76
2023/07/09 10:51:02;;;;;;;9.23;5.32;;;34.00;50.60;;;;;;5089578;28;20011;-76
2023/07/09 10:53:48;;;;;;;8.05;5.32;;;34.20;33.80;;;;;;5088942;28;20448;-76
2023/07/09 10:56:23;;;;;;;6.95;4.90;;;34.40;22.40;;;;;;5065245;28;20119;-76
2023/07/09 10:59:30;;;;;;;7.93;5.70;;;34.50;12.30;;;;;;5078048;28;20430;-76
2023/07/09 11:02:19;;;;;;;8.07;6.25;;;34.70;9.50;;;;;;5042891;28;20409;-76
2023/07/09 11:04:51;;;;;;;8.80;5.75;;;34.70;1.00;;;;;;5081119;28;20406;-76
2023/07/09 11:07:29;;;;;;;8.60;5.93;;;34.80;1.00;;;;;;5070068;28;20399;-76
2023/07/09 11:09:58;;;;;;;9.95;7.40;;;34.90;1.00;;;;;;5087630;28;20402;-75
2023/07/09 11:12:36;;;;;;;11.63;8.25;;;35.00;1.00;;;;;;5087813;28;20543;-76
2023/07/09 11:15:04;;;;;;;8.83;7.83;;;35.00;1.00;;;;;;5088174;28;20887;-75
2023/07/09 11:17:30;;;;;;;9.95;7.22;;;35.00;1.00;;;;;;5088213;28;20467;-76
2023/07/09 11:19:59;;;;;;;11.68;7.53;;;34.90;1.00;;;;;;5088377;28;20437;-76
2023/07/09 11:22:41;;;;;;;9.13;6.93;;;34.90;1.00;;;;;;5087652;28;20402;-75
2023/07/09 11:25:13;;;;;;;10.68;7.38;;;34.90;1.00;;;;;;5083086;28;20410;-76
2023/07/09 11:27:52;;;;;;;10.00;6.97;;;34.90;1.00;;;;;;5087606;28;20406;-75
2023/07/09 11:30:22;;;;;;;10.48;7.13;;;34.80;1.00;;;;;;5052836;28;20867;-76
2023/07/09 11:32:53;;;;;;;9.55;5.95;;;34.90;1.00;;;;;;5050136;28;20743;-76
2023/07/09 11:35:27;;;;;;;10.67;7.10;;;34.90;1.00;;;;;;5082911;28;20486;-76
2023/07/09 11:37:53;;;;;;;14.70;8.02;;;35.10;1.00;;;;;;5082052;28;20432;-76
2023/07/09 11:40:19;;;;;;;9.27;7.63;;;35.10;1.00;;;;;;5069507;28;20408;-76
2023/07/09 11:42:54;;;;;;;10.02;8.23;;;35.10;1.00;;;;;;5083277;28;20943;-75
2023/07/09 11:45:32;;;;;;;10.73;7.68;;;35.10;1.00;;;;;;5059564;28;20409;-75
2023/07/09 11:48:07;;;;;;;10.52;7.38;;;35.10;1.00;;;;;;5059413;28;20808;-76
2023/07/09 11:50:41;;;;;;;;;;;35.00;1.00;;;;;;5066925;28;20097;-76
2023/07/09 11:53:21;;;;;;;;;;;35.10;1.00;;;;;;5088951;28;19927;-76
2023/07/09 11:55:47;;;;;;;;;;;35.10;1.00;;;;;;5058422;28;19924;-76
2023/07/09 11:58:15;;;;;;;12.77;6.97;;;35.20;1.00;;;;;;5067485;28;20386;-76
2023/07/09 12:00:48;;;;;;;11.07;7.60;;;35.30;1.00;;;;;;5087631;28;20054;-76
2023/07/09 12:03:36;;;;;;;8.63;7.63;;;35.40;1.00;;;;;;5053142;28;20464;-76
2023/07/09 12:06:18;;;;;;;9.55;7.80;;;35.40;1.00;;;;;;5066981;28;20500;-75
2023/07/09 12:08:45;;;;;;;10.80;7.90;;;35.50;1.00;;;;;;5074067;28;20417;-76
2023/07/09 12:11:27;;;;;;;12.50;7.72;;;35.70;1.00;;;;;;5091955;28;20402;-76
2023/07/09 12:13:53;;;;;;;;;;;35.70;1.00;;;;;;5075125;28;20051;-76
2023/07/09 12:16:23;;;;;;;;;;;35.70;1.00;;;;;;5057500;28;19920;-76
2023/07/09 12:18:49;;;;;;;;;;;35.60;1.00;;;;;;5075283;28;19920;-76
2023/07/09 12:21:14;;;;;;;10.88;7.70;;;35.60;1.00;;;;;;5074731;28;20052;-76
2023/07/09 12:23:40;;;;;;;10.20;6.78;;;35.70;1.00;;;;;;5093019;28;20399;-76
2023/07/09 12:26:13;;;;;;;11.27;7.53;;;35.90;1.00;;;;;;5061031;28;20561;-76
2023/07/09 12:28:38;;;;;;;;;;;36.10;1.00;;;;;;5075445;28;20093;-76
2023/07/09 12:31:04;;;;;;;;;;;36.30;1.00;;;;;;5073125;28;20038;-74
2023/07/09 12:33:29;;;;;;;9.20;6.75;;;36.40;1.00;;;;;;5077643;28;20356;-77
2023/07/09 12:36:05;;;;;;;8.38;6.05;;;36.50;1.00;;;;;;5074645;28;20105;-75
2023/07/09 12:38:42;;;;;;;8.48;6.15;;;36.60;1.00;;;;;;5092637;28;20047;-75
2023/07/09 12:41:24;;;;;;;9.63;6.03;;;36.80;1.00;;;;;;5070340;28;20170;-76
2023/07/09 12:43:52;;;;;;;8.98;6.80;;;36.70;1.00;;;;;;5065154;28;21089;-76
2023/07/09 12:46:18;;;;;;;;;;;36.70;1.00;;;;;;5070121;28;20032;-76
2023/07/09 12:48:46;;;;;;;7.28;5.75;;;36.60;1.00;;;;;;5074586;28;20280;-76
2023/07/09 12:51:28;;;;;;;10.20;6.00;;;36.70;1.00;;;;;;5085430;28;20054;-76
2023/07/09 12:54:19;;;;;;;11.35;5.85;;;36.80;1.00;;;;;;5086220;28;20064;-76
2023/07/09 12:56:46;;;;;;;9.33;5.70;;;36.80;1.00;;;;;;5091635;28;20040;-76
2023/07/09 12:59:20;;;;;;;8.50;5.07;;;36.90;1.00;;;;;;5070911;28;20093;-76
2023/07/09 13:02:00;;;;;;;6.85;5.20;;;36.90;1.00;;;;;;5087901;28;20055;-76
2023/07/09 13:04:36;;;;;;;7.13;5.20;;;36.90;1.00;;;;;;5071000;28;20659;-76
2023/07/09 13:07:02;;;;;;;8.65;5.78;;;37.00;1.00;;;;;;5069767;28;20406;-76
2023/07/09 13:09:28;;;;;;;9.30;5.70;;;37.00;1.00;;;;;;5089044;28;20397;-76
2023/07/09 13:11:54;;;;;;;7.85;5.10;;;37.10;1.00;;;;;;5064528;28;20394;-76
2023/07/09 13:14:30;;;;;;;7.22;5.57;;;37.20;1.00;;;;;;5084426;28;20434;-76
2023/07/09 13:17:07;;;;;;;7.82;5.35;;;37.20;1.00;;;;;;5064243;28;20937;-76
2023/07/09 13:19:33;;;;;;;6.82;4.97;;;37.20;1.00;;;;;;5066827;28;20413;-76
2023/07/09 13:21:59;;;;;;;8.83;5.60;;;37.30;99.90;;;;;;5055710;28;20423;-76
2023/07/09 13:24:28;;;;;;;8.10;5.35;;;37.40;99.90;;;;;;5059227;28;20407;-76
2023/07/09 13:26:54;;;;;;;7.40;5.97;;;37.30;99.90;;;;;;5075889;28;22003;-76
2023/07/09 13:29:22;;;;;;;;;;;37.30;99.90;;;;;;5082381;28;20036;-75
2023/07/09 13:31:49;;;;;;;;;;;37.10;99.90;;;;;;5064312;28;19924;-75
2023/07/09 13:34:22;;;;;;;;;;;37.00;99.90;;;;;;5076298;28;20057;-75
2023/07/09 13:36:49;;;;;;;9.88;5.35;;;36.70;99.90;;;;;;5074789;28;19928;-77
2023/07/09 13:39:15;;;;;;;9.30;5.53;;;36.70;99.90;;;;;;5068770;28;20521;-77
2023/07/09 13:41:46;;;;;;;7.00;5.22;;;36.90;99.90;;;;;;5069921;28;20810;-77
2023/07/09 13:44:20;;;;;;;;;;;37.10;99.90;;;;;;5083035;28;20052;-77
2023/07/09 13:46:45;;;;;;;;;;;37.30;99.90;;;;;;5087020;28;19919;-76
2023/07/09 13:49:13;;;;;;;;;;;37.30;99.90;;;;;;5082086;28;19927;-76
2023/07/09 13:51:39;;;;;;;;;;;37.20;99.90;;;;;;5079769;28;20585;-76
2023/07/09 13:54:13;;;;;;;;;;;37.10;99.90;;;;;;5086106;28;20365;-76
2023/07/09 13:56:38;;;;;;;;;;;37.10;99.90;;;;;;5088477;28;20003;-76
2023/07/09 13:59:11;;;;;;;;;;;37.20;99.90;;;;;;5089771;28;20014;-76
2023/07/09 14:01:36;;;;;;;6.60;5.07;;;37.20;99.90;;;;;;5085766;28;19923;-76
2023/07/09 14:04:02;;;;;;;10.60;5.63;;;37.30;99.90;;;;;;5080182;28;20036;-76
2023/07/09 14:06:28;;;;;;;8.68;5.88;;;37.30;99.90;;;;;;5071552;28;20473;-76
2023/07/09 14:08:53;;;;;;;8.68;5.20;;;37.30;99.90;;;;;;5072573;28;20578;-76